Time;durP1;ratioP1;P1;durP2;ratioP2;P2;SDS_P1;SDS_P2;PMS_P1;PMS_P2;Temp;Humidity;BMP_temperature;BMP_pressure;BME280_temperature;BME280_humidity;BME280_pressure;Samples;Min_cycle;Max_cycle;Signal;HPM_P1;HPM_P2
2022/05/25 00:00:46;;;;;;;3.08;1.60;;;29.70;51.90;;;;;;4116697;28;20176;-58
2022/05/25 00:02:48;;;;;;;2.70;1.30;;;29.50;52.00;;;;;;4111359;28;20056;-59
2022/05/25 00:04:52;;;;;;;2.63;1.30;;;29.20;53.20;;;;;;4113377;28;20143;-58
2022/05/25 00:06:55;;;;;;;2.38;1.33;;;28.80;53.40;;;;;;4119413;28;20735;-58
2022/05/25 00:08:57;;;;;;;2.97;1.50;;;28.40;53.70;;;;;;4111268;28;20053;-61
2022/05/25 00:10:59;;;;;;;3.17;1.70;;;28.00;54.30;;;;;;4112207;28;20061;-59
2022/05/25 00:13:01;;;;;;;3.27;1.50;;;27.70;54.70;;;;;;4119997;28;20080;-59
2022/05/25 00:15:05;;;;;;;2.72;1.45;;;27.50;55.30;;;;;;4115964;28;20681;-61
2022/05/25 00:17:07;;;;;;;2.42;1.48;;;27.20;55.60;;;;;;4110602;28;20460;-57
2022/05/25 00:21:31;;;;;;;2.30;1.40;;;26.80;56.30;;;;;;4109089;28;20053;-57
2022/05/25 00:23:33;;;;;;;2.17;1.30;;;26.60;56.50;;;;;;4112941;28;20150;-59
2022/05/25 00:25:39;;;;;;;2.70;1.30;;;26.50;56.80;;;;;;4115875;28;21667;-56
2022/05/25 00:27:42;;;;;;;3.15;1.48;;;26.30;56.90;;;;;;4107066;28;20711;-61
2022/05/25 00:29:44;;;;;;;3.13;1.30;;;26.20;57.20;;;;;;4109483;28;20072;-61
2022/05/25 00:31:47;;;;;;;3.90;1.63;;;26.10;57.50;;;;;;4115679;28;20049;-58
2022/05/25 00:33:49;;;;;;;3.03;1.45;;;26.00;57.60;;;;;;4112860;28;20172;-60
2022/05/25 00:35:51;;;;;;;3.13;1.50;;;25.80;57.80;;;;;;4111402;28;20272;-59
2022/05/25 00:37:53;;;;;;;4.28;1.40;;;25.70;57.80;;;;;;4110288;28;20468;-61
2022/05/25 00:39:55;;;;;;;2.25;1.25;;;25.60;57.70;;;;;;4119809;28;20127;-61
2022/05/25 00:41:57;;;;;;;3.35;1.55;;;25.50;58.00;;;;;;4113118;28;20049;-61
2022/05/25 00:43:59;;;;;;;5.32;1.98;;;25.40;58.00;;;;;;4112283;28;20472;-63
2022/05/25 00:46:08;;;;;;;1.77;1.27;;;25.40;58.80;;;;;;4118714;28;21123;-60
2022/05/25 00:48:20;;;;;;;1.27;1.00;;;25.20;58.40;;;;;;4115858;28;20438;-59
2022/05/25 00:50:25;;;;;;;3.33;1.48;;;25.20;58.50;;;;;;4114153;28;20053;-58
2022/05/25 00:52:28;;;;;;;3.00;1.65;;;25.10;58.80;;;;;;4108036;28;20049;-59
2022/05/25 00:54:39;;;;;;;2.15;1.20;;;25.00;59.10;;;;;;4109592;28;20468;-57
2022/05/25 00:56:45;;;;;;;5.50;1.63;;;24.90;59.20;;;;;;4112194;28;20161;-60
2022/05/25 00:59:07;;;;;;;4.20;1.20;;;24.80;59.40;;;;;;4113613;28;20049;-62
2022/05/25 01:01:09;;;;;;;5.70;1.30;;;24.70;59.60;;;;;;4111970;28;20106;-59
2022/05/25 01:03:13;;;;;;;3.47;1.17;;;24.60;60.00;;;;;;4113784;28;20296;-58
2022/05/25 01:05:20;;;;;;;4.20;1.60;;;24.60;60.10;;;;;;4117759;28;20061;-60
2022/05/25 01:07:38;;;;;;;3.00;1.42;;;24.50;60.10;;;;;;4112945;28;20053;-61
2022/05/25 01:09:52;;;;;;;2.30;1.27;;;24.40;60.40;;;;;;4120137;28;20104;-57
2022/05/25 01:12:45;;;;;;;7.07;1.60;;;24.40;61.00;;;;;;4119261;28;20076;-58
2022/05/25 01:15:09;;;;;;;3.40;1.70;;;24.30;61.50;;;;;;4103612;28;20079;-57
2022/05/25 01:17:25;;;;;;;4.20;1.35;;;24.20;61.50;;;;;;4109286;28;20087;-58
2022/05/25 01:19:43;;;;;;;4.93;1.50;;;24.20;61.60;;;;;;4110081;28;21513;-57
2022/05/25 01:22:00;;;;;;;3.60;1.17;;;24.20;61.70;;;;;;4116353;28;21761;-56
2022/05/25 01:24:20;;;;;;;2.47;1.10;;;24.10;61.80;;;;;;4116251;28;20052;-58
2022/05/25 01:26:31;;;;;;;1.70;1.20;;;24.00;61.70;;;;;;4110473;28;20049;-55
2022/05/25 01:28:54;;;;;;;2.30;1.25;;;24.00;61.80;;;;;;4112666;28;20144;-58
2022/05/25 01:30:57;;;;;;;2.20;1.20;;;24.00;62.80;;;;;;4110714;28;20115;-58
2022/05/25 01:33:16;;;;;;;2.80;1.10;;;23.90;62.80;;;;;;4108679;28;20645;-62
2022/05/25 01:35:50;;;;;;;3.75;1.00;;;23.80;63.00;;;;;;4109768;28;20552;-57
2022/05/25 01:38:13;;;;;;;3.65;1.15;;;23.80;62.80;;;;;;4112991;28;20053;-58
2022/05/25 01:40:38;;;;;;;2.40;1.13;;;23.80;62.90;;;;;;4110072;28;20140;-59
2022/05/25 01:42:55;;;;;;;1.90;1.13;;;23.70;62.50;;;;;;4113272;28;20479;-59
2022/05/25 01:45:04;;;;;;;3.08;1.15;;;23.60;62.90;;;;;;4117616;28;20057;-58
2022/05/25 01:47:12;;;;;;;1.45;1.05;;;23.60;62.30;;;;;;4118467;28;20111;-56
2022/05/25 01:49:20;;;;;;;1.55;0.77;;;23.60;62.20;;;;;;4114131;28;21607;-58
2022/05/25 01:51:44;;;;;;;1.67;1.00;;;23.50;62.50;;;;;;4111702;28;20087;-61
2022/05/25 01:53:53;;;;;;;1.65;1.30;;;23.40;63.30;;;;;;4114916;28;20156;-55
2022/05/25 01:56:00;;;;;;;1.33;0.88;;;23.40;64.00;;;;;;4116586;28;20532;-58
2022/05/25 01:58:08;;;;;;;2.17;1.00;;;23.40;63.80;;;;;;4113596;28;20187;-60
2022/05/25 02:00:25;;;;;;;2.90;1.20;;;23.40;63.60;;;;;;4109992;28;20112;-56
2022/05/25 02:04:49;;;;;;;1.83;0.80;;;23.30;63.60;;;;;;4116729;28;20053;-56
2022/05/25 02:07:13;;;;;;;2.88;1.23;;;23.20;63.70;;;;;;4113265;28;20626;-54
2022/05/25 02:09:39;;;;;;;8.90;1.60;;;23.20;64.50;;;;;;4115168;28;20124;-58
2022/05/25 02:11:47;;;;;;;7.28;1.40;;;23.20;64.70;;;;;;4111701;28;20881;-59
2022/05/25 02:14:40;;;;;;;7.18;1.20;;;23.20;64.80;;;;;;4111024;28;20614;-58
2022/05/25 02:17:03;;;;;;;4.20;1.20;;;23.10;64.70;;;;;;4091354;28;20750;-55
2022/05/25 02:19:14;;;;;;;7.72;1.20;;;23.10;65.00;;;;;;4116187;28;20056;-59
2022/05/25 02:21:32;;;;;;;5.25;1.27;;;23.00;64.90;;;;;;4119979;28;20064;-57
2022/05/25 02:23:43;;;;;;;7.53;1.20;;;23.00;64.90;;;;;;4117652;28;20065;-57
2022/05/25 02:25:57;;;;;;;5.53;1.30;;;23.00;65.20;;;;;;4119474;28;20049;-57
2022/05/25 02:28:06;;;;;;;9.30;1.40;;;22.90;65.20;;;;;;4115591;28;20159;-55
2022/05/25 02:30:21;;;;;;;6.97;1.35;;;22.90;65.20;;;;;;4119255;28;20049;-57
2022/05/25 02:32:39;;;;;;;3.92;0.90;;;22.90;65.40;;;;;;4116613;28;20053;-57
2022/05/25 02:34:45;;;;;;;2.42;0.70;;;22.80;65.40;;;;;;4111322;28;20050;-55
2022/05/25 02:36:48;;;;;;;5.68;1.20;;;22.80;65.60;;;;;;4120535;28;20060;-56
2022/05/25 02:38:50;;;;;;;2.90;1.13;;;22.70;65.70;;;;;;4117461;28;21545;-57
2022/05/25 02:41:07;;;;;;;20.30;1.33;;;22.70;65.80;;;;;;4111484;28;20986;-57
2022/05/25 02:43:10;;;;;;;3.13;0.85;;;22.70;65.90;;;;;;4111772;28;20448;-59
2022/05/25 02:45:13;;;;;;;1.73;0.70;;;22.70;66.10;;;;;;4111707;28;20172;-56
2022/05/25 02:47:15;;;;;;;2.38;0.73;;;22.60;66.20;;;;;;4117225;28;20053;-60
2022/05/25 02:49:18;;;;;;;1.13;0.60;;;22.70;66.20;;;;;;4114877;28;20987;-58
2022/05/25 02:51:20;;;;;;;;;;;22.60;66.10;;;;;;4111256;28;20160;-52
2022/05/25 02:53:22;;;;;;;1.83;0.80;;;22.60;66.20;;;;;;4116888;28;20047;-56
2022/05/25 02:55:25;;;;;;;2.08;0.68;;;22.60;66.20;;;;;;4118614;28;20054;-56
2022/05/25 02:57:27;;;;;;;2.90;0.70;;;22.60;66.30;;;;;;4112908;28;20311;-55
2022/05/25 02:59:29;;;;;;;1.40;0.82;;;22.60;66.50;;;;;;4112420;28;20063;-55
2022/05/25 03:01:31;;;;;;;1.38;0.70;;;22.60;66.50;;;;;;4117410;28;20053;-56
2022/05/25 03:03:35;;;;;;;1.77;1.13;;;22.50;66.60;;;;;;4126544;28;20057;-58
2022/05/25 03:05:38;;;;;;;1.60;0.90;;;22.50;66.60;;;;;;4108883;28;20491;-56
2022/05/25 03:07:40;;;;;;;1.38;0.70;;;22.50;66.70;;;;;;4112127;28;20065;-57
2022/05/25 03:09:42;;;;;;;3.03;0.90;;;22.60;66.80;;;;;;4121751;28;20492;-65
2022/05/25 03:11:45;;;;;;;4.22;1.08;;;22.50;67.20;;;;;;4110558;28;20057;-63
2022/05/25 03:13:48;;;;;;;1.83;1.00;;;22.60;67.40;;;;;;4112279;28;20416;-61
2022/05/25 03:15:50;;;;;;;2.63;0.90;;;22.60;67.70;;;;;;4120085;28;20056;-62
2022/05/25 03:17:53;;;;;;;1.52;0.70;;;22.60;67.00;;;;;;4112590;28;20135;-64
2022/05/25 03:19:57;;;;;;;1.50;0.63;;;22.60;67.10;;;;;;4109797;28;20099;-61
2022/05/25 03:21:59;;;;;;;3.75;0.80;;;22.60;67.10;;;;;;4113197;28;20449;-61
2022/05/25 03:24:01;;;;;;;5.53;0.85;;;22.60;67.00;;;;;;4117819;28;20338;-62
2022/05/25 03:26:03;;;;;;;1.55;0.68;;;22.60;67.10;;;;;;4114148;28;20057;-62
2022/05/25 03:28:06;;;;;;;2.33;1.00;;;22.70;67.10;;;;;;4113011;28;20535;-61
2022/05/25 03:30:09;;;;;;;0.95;0.60;;;22.60;67.00;;;;;;4123729;28;20111;-65
2022/05/25 03:32:11;;;;;;;0.77;0.55;;;22.70;67.10;;;;;;4116596;28;20537;-61
2022/05/25 03:34:14;;;;;;;1.10;0.90;;;22.70;66.70;;;;;;4113972;28;20045;-61
2022/05/25 03:36:16;;;;;;;7.68;0.65;;;22.70;67.10;;;;;;4120759;28;20064;-58
2022/05/25 03:38:18;;;;;;;1.05;0.95;;;22.70;67.10;;;;;;4120508;28;20298;-60
2022/05/25 03:40:20;;;;;;;0.47;0.47;;;22.70;67.00;;;;;;4113500;28;20084;-57
2022/05/25 03:42:23;;;;;;;1.13;0.60;;;22.70;67.00;;;;;;4114767;28;20126;-59
2022/05/25 03:44:25;;;;;;;0.88;0.35;;;22.70;67.00;;;;;;4122968;28;20084;-59
2022/05/25 03:46:32;;;;;;;3.22;0.60;;;22.70;67.00;;;;;;4134097;28;20046;-61
2022/05/25 03:48:34;;;;;;;2.13;0.70;;;22.70;67.00;;;;;;4131706;28;20885;-60
2022/05/25 03:50:41;;;;;;;1.27;0.90;;;22.80;66.90;;;;;;4133686;28;20140;-60
2022/05/25 03:52:43;;;;;;;1.00;0.47;;;22.80;66.90;;;;;;4127261;28;20060;-64
2022/05/25 03:54:45;;;;;;;1.13;0.80;;;22.80;66.90;;;;;;4122714;28;20139;-61
2022/05/25 03:56:47;;;;;;;1.08;0.60;;;22.80;66.70;;;;;;4114048;28;20045;-60
2022/05/25 03:58:49;;;;;;;1.40;0.50;;;22.90;66.80;;;;;;4122462;28;20476;-60
2022/05/25 04:00:51;;;;;;;1.40;0.55;;;22.90;66.80;;;;;;4117410;28;20818;-61
2022/05/25 04:02:53;;;;;;;2.05;0.40;;;22.90;66.70;;;;;;4113730;28;20572;-59
2022/05/25 04:05:07;;;;;;;0.93;0.60;;;22.90;66.70;;;;;;4116515;28;20138;-60
2022/05/25 04:07:10;;;;;;;1.88;0.60;;;22.90;66.70;;;;;;4112882;28;20463;-60
2022/05/25 04:09:12;;;;;;;0.90;0.55;;;22.90;66.70;;;;;;4120800;28;20486;-62
2022/05/25 04:11:14;;;;;;;0.70;0.40;;;23.00;66.80;;;;;;4114010;28;20225;-59
2022/05/25 04:13:16;;;;;;;0.40;0.20;;;23.00;66.80;;;;;;4111706;28;20310;-61
2022/05/25 04:15:22;;;;;;;1.17;0.47;;;23.00;66.80;;;;;;4118733;28;20140;-59
2022/05/25 04:17:24;;;;;;;0.40;0.35;;;23.00;66.80;;;;;;4117135;28;20045;-60
2022/05/25 04:19:26;;;;;;;0.55;0.50;;;23.00;66.70;;;;;;4114360;28;20224;-59
2022/05/25 04:21:29;;;;;;;1.13;0.40;;;23.10;66.70;;;;;;4115258;28;20042;-59
2022/05/25 04:23:31;;;;;;;0.30;0.30;;;23.10;66.50;;;;;;4119768;28;20095;-59
2022/05/25 04:25:33;;;;;;;0.47;0.30;;;23.20;66.40;;;;;;4113193;28;20421;-59
2022/05/25 04:27:36;;;;;;;0.50;0.32;;;23.20;66.20;;;;;;4112621;28;20084;-60
2022/05/25 04:29:39;;;;;;;0.88;0.60;;;23.20;66.20;;;;;;4118242;28;20944;-60
2022/05/25 04:31:41;;;;;;;1.55;0.43;;;23.20;66.30;;;;;;4115102;28;20598;-61
2022/05/25 04:33:43;;;;;;;0.30;0.30;;;23.30;66.30;;;;;;4109483;28;20052;-61
2022/05/25 04:35:45;;;;;;;1.95;0.40;;;23.30;66.20;;;;;;4117760;28;20049;-61
2022/05/25 04:37:53;;;;;;;1.67;0.40;;;23.30;66.20;;;;;;4116999;28;22220;-60
2022/05/25 04:39:55;;;;;;;0.35;0.35;;;23.40;66.10;;;;;;4111120;28;20053;-62
2022/05/25 04:41:59;;;;;;;1.50;0.57;;;23.40;66.00;;;;;;4112865;28;20053;-63
2022/05/25 04:44:01;;;;;;;3.03;0.80;;;23.40;65.20;;;;;;4115861;28;20151;-63
2022/05/25 04:46:08;;;;;;;0.73;0.60;;;23.40;64.60;;;;;;4117666;28;20735;-61
2022/05/25 04:48:13;;;;;;;3.72;0.77;;;23.40;64.30;;;;;;4111289;28;20597;-61
2022/05/25 04:50:17;;;;;;;0.50;0.50;;;23.40;64.30;;;;;;4110668;28;20049;-61
2022/05/25 04:52:19;;;;;;;3.88;0.88;;;23.40;64.70;;;;;;4109861;28;20092;-60
2022/05/25 04:54:21;;;;;;;0.43;0.43;;;23.40;65.10;;;;;;4115762;28;20049;-62
2022/05/25 04:58:47;;;;;;;1.85;0.47;;;23.40;65.50;;;;;;4118404;28;20407;-64
2022/05/25 05:00:50;;;;;;;0.88;0.50;;;23.40;65.50;;;;;;4108834;28;20274;-63
2022/05/25 05:02:52;;;;;;;1.85;0.50;;;23.40;65.70;;;;;;4109642;28;20049;-65
2022/05/25 05:04:54;;;;;;;1.05;0.40;;;23.30;65.70;;;;;;4117883;28;20045;-62
2022/05/25 05:06:56;;;;;;;1.30;0.50;;;23.30;65.80;;;;;;4113845;28;21245;-63
2022/05/25 05:08:58;;;;;;;1.83;0.47;;;23.30;65.90;;;;;;4110992;28;20088;-62
2022/05/25 05:11:11;;;;;;;0.70;0.47;;;23.30;65.90;;;;;;4114316;28;20323;-63
2022/05/25 05:13:14;;;;;;;0.52;0.45;;;23.30;65.90;;;;;;4112911;28;20442;-64
2022/05/25 05:15:15;;;;;;;;;;;23.30;66.10;;;;;;4118767;28;20146;-65
2022/05/25 05:17:17;;;;;;;1.08;0.50;;;23.20;66.20;;;;;;4110357;28;20025;-61
2022/05/25 05:19:20;;;;;;;1.17;0.47;;;23.20;66.20;;;;;;4111219;28;20068;-62
2022/05/25 05:21:22;;;;;;;1.33;0.37;;;23.20;66.20;;;;;;4114417;28;20199;-63
2022/05/25 05:23:24;;;;;;;0.57;0.43;;;23.20;66.20;;;;;;4110142;28;20812;-62
2022/05/25 05:25:27;;;;;;;1.10;0.47;;;23.10;66.30;;;;;;4111394;28;20056;-61
2022/05/25 05:27:29;;;;;;;1.10;0.65;;;23.10;66.40;;;;;;4114896;28;20738;-64
2022/05/25 05:29:32;;;;;;;2.30;0.68;;;23.10;66.50;;;;;;4113117;28;20327;-60
2022/05/25 05:31:34;;;;;;;0.50;0.47;;;23.00;66.40;;;;;;4109909;28;20045;-62
2022/05/25 05:33:37;;;;;;;2.70;0.47;;;23.00;65.90;;;;;;4107803;28;20081;-65
2022/05/25 05:35:39;;;;;;;0.40;0.30;;;23.00;66.10;;;;;;4117681;28;20455;-62
2022/05/25 05:37:50;;;;;;;2.60;0.52;;;23.00;66.10;;;;;;4107021;28;20139;-62
2022/05/25 05:39:55;;;;;;;1.60;0.45;;;23.00;66.40;;;;;;4109682;28;20592;-63
2022/05/25 05:42:04;;;;;;;2.38;0.60;;;23.00;66.50;;;;;;4110690;28;20421;-63
2022/05/25 05:44:10;;;;;;;10.40;0.82;;;22.90;66.50;;;;;;4110276;28;20045;-63
2022/05/25 05:46:13;;;;;;;0.80;0.50;;;22.90;66.60;;;;;;4119244;28;20548;-62
2022/05/25 05:48:23;;;;;;;1.35;0.40;;;22.90;66.70;;;;;;4113271;28;20049;-64
2022/05/25 05:50:26;;;;;;;5.88;0.50;;;22.90;67.40;;;;;;4109090;28;20350;-62
2022/05/25 05:52:29;;;;;;;1.60;0.50;;;22.90;66.80;;;;;;4109075;28;20057;-62
2022/05/25 05:54:31;;;;;;;2.83;0.50;;;22.90;66.90;;;;;;4114356;28;20080;-61
2022/05/25 05:56:34;;;;;;;2.50;0.57;;;22.90;67.00;;;;;;4114791;28;20172;-63
2022/05/25 05:58:36;;;;;;;1.35;0.52;;;22.90;67.10;;;;;;4109771;28;20057;-61
2022/05/25 06:00:39;;;;;;;1.58;0.50;;;22.90;67.10;;;;;;4108842;28;20706;-61
2022/05/25 06:02:42;;;;;;;2.38;0.73;;;22.90;67.20;;;;;;4117943;28;20049;-62
2022/05/25 06:04:44;;;;;;;1.20;0.50;;;22.80;67.10;;;;;;4110270;28;20235;-62
2022/05/25 06:06:46;;;;;;;0.77;0.60;;;22.80;67.20;;;;;;4112637;28;20932;-61
2022/05/25 06:08:49;;;;;;;1.75;0.70;;;22.80;67.30;;;;;;4117052;28;20049;-61
2022/05/25 06:10:52;;;;;;;0.73;0.35;;;22.80;67.30;;;;;;4113785;28;20509;-62
2022/05/25 06:12:54;;;;;;;1.42;0.40;;;22.80;67.40;;;;;;4110250;28;20465;-61
2022/05/25 06:14:56;;;;;;;0.43;0.38;;;22.80;67.40;;;;;;4110244;28;20069;-61
2022/05/25 06:19:28;;;;;;;1.15;0.40;;;22.70;67.30;;;;;;4110647;28;20045;-61
2022/05/25 06:21:31;;;;;;;0.52;0.30;;;22.70;68.00;;;;;;4111115;28;20477;-62
2022/05/25 06:23:33;;;;;;;0.68;0.30;;;22.70;67.30;;;;;;4114491;28;20440;-60
2022/05/25 06:25:35;;;;;;;3.65;0.77;;;22.70;67.40;;;;;;4110128;28;20382;-60
2022/05/25 06:27:37;;;;;;;0.57;0.43;;;22.70;67.40;;;;;;4109875;28;20660;-63
2022/05/25 06:29:43;;;;;;;1.63;0.47;;;22.70;67.50;;;;;;4114812;28;20149;-61
2022/05/25 06:31:45;;;;;;;2.08;0.50;;;22.60;67.40;;;;;;4105809;28;20042;-60
2022/05/25 06:33:47;;;;;;;0.88;0.52;;;22.60;67.60;;;;;;4100469;28;20049;-56
2022/05/25 06:35:49;;;;;;;0.55;0.38;;;22.60;67.60;;;;;;4106524;28;20054;-54
2022/05/25 06:37:52;;;;;;;1.45;0.20;;;22.60;67.60;;;;;;4107373;28;20049;-59
2022/05/25 06:39:54;;;;;;;1.30;0.60;;;22.60;67.70;;;;;;4105063;28;20580;-59
2022/05/25 06:41:56;;;;;;;5.68;0.60;;;22.60;67.70;;;;;;4104646;28;20073;-57
2022/05/25 06:43:58;;;;;;;1.63;0.45;;;22.60;67.70;;;;;;4110879;28;20053;-58
2022/05/25 06:46:00;;;;;;;0.52;0.30;;;22.50;67.70;;;;;;4102944;28;20403;-58
2022/05/25 06:48:07;;;;;;;2.92;0.60;;;22.50;67.80;;;;;;4100868;28;21018;-53
2022/05/25 06:50:10;;;;;;;0.85;0.45;;;22.50;67.90;;;;;;4106956;28;20060;-59
2022/05/25 06:52:13;;;;;;;1.83;0.40;;;22.50;67.90;;;;;;4111443;28;20069;-57
2022/05/25 06:54:16;;;;;;;;;;;22.50;67.90;;;;;;4104561;28;20497;-60
2022/05/25 06:56:24;;;;;;;1.90;0.50;;;22.50;68.00;;;;;;4104215;28;19929;-58
2022/05/25 06:58:26;;;;;;;2.60;0.55;;;22.40;67.90;;;;;;4106343;28;20184;-59
2022/05/25 07:00:28;;;;;;;0.30;0.30;;;22.40;68.00;;;;;;4113620;28;20080;-58
2022/05/25 07:02:30;;;;;;;1.35;0.43;;;22.40;68.00;;;;;;4109192;28;20084;-59
2022/05/25 07:04:33;;;;;;;0.85;0.55;;;22.40;68.10;;;;;;4110526;28;20049;-61
2022/05/25 07:06:37;;;;;;;1.90;0.60;;;22.40;68.10;;;;;;4117523;28;20372;-59
2022/05/25 07:08:40;;;;;;;0.47;0.47;;;22.40;68.20;;;;;;4096650;28;21415;-62
2022/05/25 07:10:45;;;;;;;0.88;0.55;;;22.40;68.20;;;;;;4114786;28;20111;-59
2022/05/25 07:12:47;;;;;;;1.80;1.00;;;22.40;68.20;;;;;;4111068;28;20038;-56
2022/05/25 07:14:50;;;;;;;1.90;0.87;;;22.30;68.10;;;;;;4118939;28;20060;-56
2022/05/25 07:16:52;;;;;;;1.40;0.95;;;22.30;68.00;;;;;;4114827;28;20049;-58
2022/05/25 07:18:55;;;;;;;3.17;1.20;;;22.30;68.00;;;;;;4111937;28;20504;-57
2022/05/25 07:21:08;;;;;;;2.00;1.40;;;22.30;68.00;;;;;;4120063;28;20206;-57
2022/05/25 07:23:10;;;;;;;;;;;22.20;68.40;;;;;;4118118;28;20497;-57
2022/05/25 07:25:12;;;;;;;3.70;1.60;;;22.20;68.00;;;;;;4117791;28;20467;-56
2022/05/25 07:27:15;;;;;;;2.45;1.55;;;22.20;68.00;;;;;;4110898;28;20242;-52
2022/05/25 07:29:17;;;;;;;3.85;1.90;;;22.20;68.00;;;;;;4110987;28;20045;-54
2022/05/25 07:32:01;;;;;;;3.33;2.10;;;22.10;68.10;;;;;;4118845;28;20136;-53
2022/05/25 07:34:19;;;;;;;3.65;2.00;;;22.10;68.20;;;;;;4096566;28;20604;-53
2022/05/25 07:36:21;;;;;;;4.85;1.60;;;22.10;68.40;;;;;;4097375;28;20699;-53
2022/05/25 07:38:24;;;;;;;4.13;1.60;;;22.10;68.60;;;;;;4094032;28;20589;-56
2022/05/25 07:40:33;;;;;;;2.40;1.63;;;22.10;68.90;;;;;;4101346;28;20353;-50
2022/05/25 07:42:35;;;;;;;4.15;1.67;;;22.00;69.00;;;;;;4101767;28;20360;-53
2022/05/25 07:44:45;;;;;;;4.97;2.20;;;22.00;68.60;;;;;;4107713;28;20611;-58
2022/05/25 07:46:49;;;;;;;3.33;1.90;;;22.00;69.40;;;;;;4109101;28;20386;-57
2022/05/25 07:48:51;;;;;;;3.17;1.83;;;22.00;69.50;;;;;;4109287;28;20834;-59
2022/05/25 07:50:53;;;;;;;4.35;1.88;;;22.00;69.70;;;;;;4104193;28;20697;-62
2022/05/25 07:52:59;;;;;;;5.45;1.83;;;22.00;70.10;;;;;;4108478;28;20053;-60
2022/05/25 07:55:02;;;;;;;5.82;1.63;;;22.00;70.20;;;;;;4114110;28;20131;-58
2022/05/25 07:57:04;;;;;;;5.53;1.88;;;22.00;70.30;;;;;;4105499;28;21153;-58
2022/05/25 07:59:11;;;;;;;4.53;1.57;;;22.00;70.30;;;;;;4105094;28;20537;-60
2022/05/25 08:01:18;;;;;;;11.77;1.98;;;22.00;70.70;;;;;;4106793;28;20366;-60
2022/05/25 08:05:43;;;;;;;2.30;1.45;;;22.00;70.40;;;;;;4106575;28;20049;-60
2022/05/25 08:07:47;;;;;;;2.88;1.30;;;22.00;71.00;;;;;;4110819;28;20504;-58
2022/05/25 08:09:54;;;;;;;2.03;1.45;;;22.00;70.40;;;;;;4112040;28;20528;-50
2022/05/25 08:11:57;;;;;;;3.50;1.52;;;22.00;70.50;;;;;;4137918;28;21026;-57
2022/05/25 08:13:59;;;;;;;2.67;1.43;;;22.00;70.40;;;;;;4105526;28;20795;-50
2022/05/25 08:16:01;;;;;;;4.13;1.80;;;21.90;70.30;;;;;;4114582;28;20560;-55
2022/05/25 08:18:03;;;;;;;7.78;1.60;;;21.90;70.50;;;;;;4117544;28;20051;-55
2022/05/25 08:20:06;;;;;;;4.60;1.40;;;21.90;70.60;;;;;;4109035;28;20509;-55
2022/05/25 08:22:09;;;;;;;4.03;1.30;;;21.90;70.70;;;;;;4109435;28;20049;-54
2022/05/25 08:24:11;;;;;;;2.22;1.10;;;21.90;70.70;;;;;;4136971;28;20520;-48
2022/05/25 08:26:13;;;;;;;2.28;1.20;;;21.90;70.70;;;;;;4121945;28;20115;-57
2022/05/25 08:28:15;;;;;;;3.15;1.30;;;21.90;70.80;;;;;;4129240;28;20397;-60
2022/05/25 08:30:20;;;;;;;2.72;1.15;;;21.90;70.70;;;;;;4115748;28;20485;-57
2022/05/25 08:32:22;;;;;;;2.83;1.52;;;21.90;70.70;;;;;;4113839;28;21534;-57
2022/05/25 08:34:28;;;;;;;3.08;1.30;;;21.90;70.80;;;;;;4107636;28;20058;-56
2022/05/25 08:36:31;;;;;;;2.08;0.95;;;21.80;70.60;;;;;;4109915;28;20077;-56
2022/05/25 08:38:33;;;;;;;2.95;1.00;;;21.90;70.60;;;;;;4114081;28;20050;-58
2022/05/25 08:40:35;;;;;;;5.72;1.23;;;21.90;70.60;;;;;;4108111;28;20336;-57
2022/05/25 08:42:57;;;;;;;1.45;1.00;;;21.80;70.60;;;;;;4108501;28;20053;-60
2022/05/25 08:45:00;;;;;;;1.63;1.02;;;21.80;69.90;;;;;;4110050;28;20441;-60
2022/05/25 08:47:05;;;;;;;1.08;0.93;;;21.80;70.30;;;;;;4112864;28;20792;-58
2022/05/25 08:49:17;;;;;;;3.83;1.55;;;21.80;69.90;;;;;;4106357;28;20596;-58
2022/05/25 08:51:27;;;;;;;3.95;1.58;;;21.80;69.60;;;;;;4121987;28;20120;-58
2022/05/25 08:53:29;;;;;;;5.35;1.63;;;21.80;69.90;;;;;;4110042;28;20058;-57
2022/05/25 08:55:45;;;;;;;4.05;1.40;;;21.70;69.90;;;;;;4112482;28;21594;-61
2022/05/25 08:57:52;;;;;;;4.60;1.40;;;21.80;70.20;;;;;;4115312;28;20553;-56
2022/05/25 09:00:06;;;;;;;10.02;1.83;;;21.70;70.30;;;;;;4113973;28;20720;-58
2022/05/25 09:02:25;;;;;;;;;;;21.70;70.30;;;;;;4114103;28;20693;-54
2022/05/25 09:04:46;;;;;;;6.70;1.77;;;21.70;70.50;;;;;;4112424;28;19928;-54
2022/05/25 09:07:15;;;;;;;9.27;1.17;;;21.70;70.80;;;;;;4108100;28;20099;-54
2022/05/25 09:09:38;;;;;;;2.47;1.00;;;21.60;70.90;;;;;;4113438;28;20860;-55
2022/05/25 09:11:51;;;;;;;;;;;21.60;71.00;;;;;;4112153;28;20075;-55
2022/05/25 09:13:59;;;;;;;4.10;1.20;;;21.60;71.10;;;;;;4110385;28;19925;-53
2022/05/25 09:16:18;;;;;;;3.60;0.93;;;21.60;71.20;;;;;;4116085;28;20056;-54
2022/05/25 09:18:21;;;;;;;4.18;1.00;;;21.60;71.30;;;;;;4108218;28;20297;-52
2022/05/25 09:20:44;;;;;;;3.22;0.88;;;21.60;71.10;;;;;;4116883;28;20053;-52
2022/05/25 09:22:47;;;;;;;;;;;21.60;71.20;;;;;;4109486;28;20053;-59
2022/05/25 09:24:53;;;;;;;10.13;1.65;;;21.60;71.30;;;;;;4113863;28;20320;-54
2022/05/25 09:26:55;;;;;;;3.65;1.30;;;21.70;71.50;;;;;;4114210;28;20707;-58
2022/05/25 09:29:05;;;;;;;6.55;1.10;;;21.60;71.20;;;;;;4109123;28;20423;-57
2022/05/25 09:31:09;;;;;;;2.92;1.27;;;21.60;71.20;;;;;;4106311;28;20174;-55
2022/05/25 09:33:34;;;;;;;6.43;1.00;;;21.60;71.20;;;;;;4110329;28;20611;-56
2022/05/25 09:35:45;;;;;;;7.75;1.30;;;21.60;71.20;;;;;;4106325;28;20594;-56
2022/05/25 09:37:56;;;;;;;2.65;1.20;;;21.60;71.30;;;;;;4109126;28;20048;-57
2022/05/25 09:40:03;;;;;;;2.17;1.10;;;21.60;71.20;;;;;;4108202;28;20184;-57
2022/05/25 09:42:06;;;;;;;2.80;1.10;;;21.60;71.10;;;;;;4109427;28;20425;-53
2022/05/25 09:44:11;;;;;;;2.75;1.08;;;21.60;71.10;;;;;;4111803;28;20458;-51
2022/05/25 09:46:30;;;;;;;2.97;1.42;;;21.60;71.20;;;;;;4119490;28;20095;-56
2022/05/25 09:48:47;;;;;;;2.33;0.95;;;21.60;71.10;;;;;;4117229;28;20081;-59
2022/05/25 09:50:56;;;;;;;3.70;1.30;;;21.60;71.10;;;;;;4109893;28;20639;-60
2022/05/25 09:53:04;;;;;;;3.50;1.50;;;21.60;71.10;;;;;;4113771;28;20076;-63
2022/05/25 09:55:13;;;;;;;5.57;1.98;;;21.60;71.30;;;;;;4117043;28;20053;-60
2022/05/25 09:57:30;;;;;;;2.30;1.60;;;21.60;71.20;;;;;;4118081;28;20143;-61
2022/05/25 09:59:35;;;;;;;3.95;2.22;;;21.60;70.20;;;;;;4115282;28;20407;-55
2022/05/25 10:01:48;;;;;;;3.00;2.00;;;21.50;69.50;;;;;;4111726;28;20046;-54
2022/05/25 10:03:50;;;;;;;7.20;1.92;;;21.50;69.40;;;;;;4112612;28;20060;-57
2022/05/25 10:05:56;;;;;;;2.80;1.70;;;21.50;70.00;;;;;;4107169;28;20148;-54
2022/05/25 10:08:21;;;;;;;4.53;1.90;;;21.50;70.20;;;;;;4106282;28;20084;-51
2022/05/25 10:10:35;;;;;;;2.50;1.38;;;21.50;70.30;;;;;;4106627;28;21144;-58
2022/05/25 10:12:42;;;;;;;2.78;1.40;;;21.40;70.50;;;;;;4114381;28;20292;-56
2022/05/25 10:14:55;;;;;;;4.85;1.52;;;21.40;70.80;;;;;;4104728;28;20832;-51
2022/05/25 10:17:10;;;;;;;3.67;1.70;;;21.50;70.90;;;;;;4104847;28;20566;-56
2022/05/25 10:19:17;;;;;;;2.22;1.50;;;21.40;70.90;;;;;;4107555;28;20088;-58
2022/05/25 10:21:27;;;;;;;2.70;1.45;;;21.40;71.00;;;;;;4104490;28;20572;-54
2022/05/25 10:23:29;;;;;;;2.53;1.30;;;21.40;71.10;;;;;;4107038;28;20342;-59
2022/05/25 10:25:42;;;;;;;2.87;1.37;;;21.40;71.20;;;;;;4106001;28;20038;-61
2022/05/25 10:27:45;;;;;;;1.77;1.10;;;21.40;71.30;;;;;;4106147;28;20151;-55
2022/05/25 10:37:09;;;;;;;4.28;1.48;;;21.40;71.60;;;;;;4106517;28;20050;-58
2022/05/25 10:39:32;;;;;;;5.30;1.52;;;21.40;71.60;;;;;;4109073;28;20583;-58
2022/05/25 10:41:41;;;;;;;5.93;1.85;;;21.40;71.80;;;;;;4103094;28;20059;-58
2022/05/25 10:43:43;;;;;;;3.03;1.42;;;21.40;71.70;;;;;;4107750;28;20068;-59
2022/05/25 10:45:51;;;;;;;1.67;1.20;;;21.30;71.70;;;;;;4112501;28;20095;-59
2022/05/25 10:48:07;;;;;;;3.47;1.30;;;21.40;71.70;;;;;;4111632;28;20255;-58
2022/05/25 10:50:26;;;;;;;4.43;1.85;;;21.40;71.70;;;;;;4112846;28;20060;-57
2022/05/25 10:52:42;;;;;;;4.60;2.00;;;21.30;71.50;;;;;;4104951;28;20139;-58
2022/05/25 10:54:56;;;;;;;4.13;2.60;;;21.40;71.30;;;;;;4100814;28;20160;-57
2022/05/25 10:57:34;;;;;;;5.88;2.38;;;21.30;70.80;;;;;;4101599;28;20404;-58
2022/05/25 11:00:00;;;;;;;5.13;1.90;;;21.30;70.90;;;;;;4107369;28;20259;-59
2022/05/25 11:02:24;;;;;;;2.28;1.60;;;21.30;70.90;;;;;;4107284;28;20452;-58
2022/05/25 11:04:57;;;;;;;6.83;2.17;;;21.30;71.00;;;;;;4115201;28;20077;-58
2022/05/25 11:07:08;;;;;;;3.00;1.50;;;21.30;71.00;;;;;;4105782;28;20321;-53
2022/05/25 11:09:34;;;;;;;4.50;1.73;;;21.30;71.00;;;;;;4108174;28;20053;-55
2022/05/25 11:12:01;;;;;;;4.10;1.65;;;21.20;71.30;;;;;;4115813;28;20049;-56
2022/05/25 11:14:23;;;;;;;3.55;1.85;;;21.20;71.70;;;;;;4105079;28;20163;-55
2022/05/25 11:16:34;;;;;;;2.20;1.60;;;21.20;71.20;;;;;;4106877;28;20119;-57
2022/05/25 11:19:13;;;;;;;3.22;1.50;;;21.20;71.40;;;;;;4108932;28;20041;-55
2022/05/25 11:21:33;;;;;;;2.58;1.40;;;21.20;71.50;;;;;;4107765;28;20046;-54
2022/05/25 11:23:52;;;;;;;2.63;1.45;;;21.10;71.50;;;;;;4107605;28;20625;-53